Flight Track Log - Related Links

Times and Time Zones

All times are in EDT time to prevent confusion due to time zone crossing. See the N508QS flight status page for this flight to view local times or setup timezone preferences in your user account.

Time Position Orientation Groundspeed Altitude Reporting Facility
EDT Latitude Longitude Course Direction KTS MPH feet Rate Location/Type
Sun 05:59:14 PM 40.8333 -74.0833 252° West 156 180 1,500  Level New York TRACON
Sun 06:00:14 PM 40.8167 -74.1500 252° West 189 217 1,600 1,381 Climbing New York TRACON
Sun 06:01:20 PM 40.8000 -74.2333 255° West 218 251 4,400 2,750 Climbing New York TRACON
Sun 06:02:14 PM 40.7667 -74.3000 237° Southwest 242 278 7,100 1,421 Climbing New York TRACON
Sun 06:03:14 PM 40.7333 -74.3667 237° Southwest 249 287 7,100  Level New York TRACON
Sun 06:04:14 PM 40.7000 -74.4667 246° West 247 284 7,100  Level New York TRACON
Sun 06:05:14 PM 40.6667 -74.5333 237° Southwest 246 283 7,100  Level New York TRACON
Sun 06:06:14 PM 40.6333 -74.6167 242° Southwest 248 285 7,100 -323 Level New York TRACON
Sun 06:08:01 PM 40.5833 -74.7500 244° Southwest 247 284 6,200 -683 Descending Philadelphia TRACON
Sun 06:09:01 PM 40.5333 -74.8167 225° Southwest 248 285 5,200 -600 Descending Philadelphia TRACON
Sun 06:10:01 PM 40.4833 -74.8833 225° Southwest 248 285 5,000 -100 Descending Philadelphia TRACON
Sun 06:11:01 PM 40.4167 -74.9333 210° Southwest 255 293 5,000  Level Philadelphia TRACON
Sun 06:12:02 PM 40.3500 -74.9667 201° Southwest 254 292 5,000 -198 Level Philadelphia TRACON
Sun 06:13:02 PM 40.2833 -74.9833 191° South 254 292 4,600 -500 Descending Philadelphia TRACON
Sun 06:14:02 PM 40.2167 -75.0000 191° South 247 284 4,000 -300 Descending Philadelphia TRACON
Sun 06:15:02 PM 40.1500 -75.0167 191° South 246 283 4,000  Level Philadelphia TRACON
Sun 06:16:02 PM 40.1000 -75.0500 207° Southwest 205 236 4,000  Level Philadelphia TRACON
Sun 06:17:02 PM 40.0333 -75.0667 191° South 192 221 4,000 -750 Level Philadelphia TRACON
Sun 06:18:02 PM 39.9833 -75.0833 194° South 203 234 2,500 -1,000 Descending Philadelphia TRACON
Sun 06:19:02 PM 39.9333 -75.1000 194° South 192 221 2,000 -550 Descending Philadelphia TRACON
Sun 06:20:02 PM 39.9000 -75.1333 217° Southwest 146 168 1,400 -650 Descending Philadelphia TRACON
Sun 06:21:02 PM 39.8833 -75.1667 237° Southwest 112 129 700 -700 Descending Philadelphia TRACON
Sun 06:23:00 PM 39.8667 -75.2333 142° Southeast  Level FlightAware Approximate
Sun 06:30:00 PM 39.8722 -75.2409 142° Southeast  Level Estimated

Login

Don't have an account? Register now (free) for customized features, flight alerts, and more!